Time;durP1;ratioP1;P1;durP2;ratioP2;P2;SDS_P1;SDS_P2;PMS_P1;PMS_P2;Temp;Humidity;BMP_temperature;BMP_pressure;BME280_temperature;BME280_humidity;BME280_pressure;Samples;Min_cycle;Max_cycle;Signal;HPM_P1;HPM_P2
2023/12/06 00:01:28;;;;;;;26.58;10.90;;;;;;;-6.97;60.04;101083.78;4724183;30;20503;-75
2023/12/06 00:03:54;;;;;;;29.42;10.73;;;;;;;-7.01;60.55;101092.78;4746027;30;20091;-68
2023/12/06 00:06:20;;;;;;;28.65;10.55;;;;;;;-7.14;59.92;101084.94;4728971;30;20512;-67
2023/12/06 00:08:46;;;;;;;27.85;11.60;;;;;;;-7.12;60.46;101101.13;4731146;30;20608;-70
2023/12/06 00:11:12;;;;;;;30.77;12.45;;;;;;;-7.26;60.55;101097.44;4731027;30;20063;-69
2023/12/06 00:13:38;;;;;;;35.88;12.68;;;;;;;-7.20;60.48;101105.56;4727948;30;20607;-70
2023/12/06 00:16:04;;;;;;;28.40;11.45;;;;;;;-7.28;60.60;101091.41;4702836;30;20044;-70
2023/12/06 00:18:30;;;;;;;30.55;12.15;;;;;;;-7.29;60.52;101100.63;4747781;30;20043;-69
2023/12/06 00:20:56;;;;;;;25.55;11.73;;;;;;;-7.36;60.22;101100.84;4745644;30;20043;-68
2023/12/06 00:23:22;;;;;;;26.17;10.77;;;;;;;-7.38;60.20;101109.94;4716867;30;20063;-71
2023/12/06 00:25:48;;;;;;;29.33;11.35;;;;;;;-7.56;60.76;101078.97;4730568;30;20044;-72
2023/12/06 00:28:14;;;;;;;25.33;11.10;;;;;;;-7.43;60.62;101111.22;4746820;30;20044;-66
2023/12/06 00:30:40;;;;;;;22.45;10.32;;;;;;;-7.55;60.59;101116.13;4730859;30;20048;-69
2023/12/06 00:33:06;;;;;;;28.65;11.88;;;;;;;-7.73;60.79;101096.13;4729148;30;20054;-68
2023/12/06 00:35:32;;;;;;;28.30;11.35;;;;;;;-7.74;60.50;101099.41;4745072;30;20039;-69
2023/12/06 00:37:58;;;;;;;33.03;11.20;;;;;;;-7.61;60.77;101124.06;4744036;30;20107;-68
2023/12/06 00:40:24;;;;;;;25.70;10.45;;;;;;;-8.02;60.09;101073.38;4716683;30;20087;-66
2023/12/06 00:42:50;;;;;;;28.60;11.48;;;;;;;-7.80;60.64;101126.69;4729441;30;20523;-68
2023/12/06 00:45:15;;;;;;;30.20;11.23;;;;;;;-7.87;60.79;101107.59;4746031;30;20075;-68
2023/12/06 00:47:41;;;;;;;29.85;11.27;;;;;;;-7.87;60.59;101116.78;4730791;30;20048;-69
2023/12/06 00:50:07;;;;;;;30.95;11.55;;;;;;;-8.00;60.78;101104.72;4745103;30;20524;-66
2023/12/06 00:52:33;;;;;;;27.48;10.93;;;;;;;-8.01;60.48;101113.06;4745297;30;20416;-68
2023/12/06 00:54:59;;;;;;;33.88;11.93;;;;;;;-8.12;60.13;101108.75;4745753;30;20142;-68
2023/12/06 00:57:25;;;;;;;27.23;10.88;;;;;;;-8.22;60.53;101133.19;4746612;30;21451;-66
2023/12/06 00:59:51;;;;;;;25.08;11.00;;;;;;;-8.47;60.24;101094.78;4730144;30;20040;-68
2023/12/06 01:02:17;;;;;;;27.02;11.35;;;;;;;-8.85;60.44;101034.28;4721793;30;20198;-69
2023/12/06 01:04:43;;;;;;;26.38;9.93;;;;;;;-8.81;60.32;101047.28;4715900;30;20659;-68
2023/12/06 01:07:09;;;;;;;23.48;10.23;;;;;;;-8.70;60.04;101105.41;4745256;30;20048;-71
2023/12/06 01:09:34;;;;;;;23.00;9.68;;;;;;;-8.66;59.91;101137.75;4732308;30;20048;-65
2023/12/06 01:12:00;;;;;;;26.20;11.15;;;;;;;-8.87;60.08;101119.06;4738249;30;20072;-67
2023/12/06 01:14:26;;;;;;;28.75;9.95;;;;;;;-6.78;70.63;101128.34;4730176;30;20048;-66
2023/12/06 01:16:52;;;;;;;23.77;9.77;;;;;;;-5.82;65.68;101134.28;4744962;30;20044;-71
2023/12/06 01:19:18;;;;;;;28.15;10.60;;;;;;;-6.19;62.16;101064.66;4745611;30;20127;-69
2023/12/06 01:21:44;;;;;;;20.73;9.05;;;;;;;-6.30;59.85;101117.00;4716331;30;20048;-69
2023/12/06 01:24:10;;;;;;;29.95;11.25;;;;;;;-6.70;58.72;101123.13;4744267;30;20040;-69
2023/12/06 01:26:37;;;;;;;26.35;10.55;;;;;;;-7.39;55.48;101118.31;4745855;30;20044;-68
2023/12/06 01:29:04;;;;;;;25.08;11.02;;;;;;;-7.94;56.15;101115.38;4746124;30;20143;-68
2023/12/06 01:31:30;;;;;;;31.17;11.25;;;;;;;-8.17;56.70;101110.88;4730894;30;20135;-71
2023/12/06 01:33:56;;;;;;;27.63;11.20;;;;;;;-8.26;57.64;101122.69;4746035;30;20084;-67
2023/12/06 01:36:22;;;;;;;25.85;10.25;;;;;;;-8.38;57.58;101125.03;4730681;30;20098;-68
2023/12/06 01:38:48;;;;;;;25.58;11.25;;;;;;;-8.47;57.79;101131.00;4729906;30;20735;-65
2023/12/06 01:41:14;;;;;;;27.80;10.43;;;;;;;-8.58;58.00;101130.84;4745930;30;20044;-70
2023/12/06 01:43:46;;;;;;;27.48;10.88;;;;;;;-8.83;58.08;101104.31;4723417;30;20457;-71
2023/12/06 01:46:12;;;;;;;;;;;;;;;-8.86;58.57;101131.78;4745804;30;20040;-71
2023/12/06 01:48:39;;;;;;;23.90;9.60;;;;;;;-8.93;58.56;101121.88;4732866;30;20001;-71
2023/12/06 01:51:07;;;;;;;26.08;9.20;;;;;;;-9.17;58.83;101093.72;4748572;30;20056;-67
2023/12/06 01:53:33;;;;;;;22.60;9.30;;;;;;;-9.24;58.55;101089.72;4749161;30;20114;-68
2023/12/06 01:56:05;;;;;;;22.60;9.93;;;;;;;-9.15;58.67;101107.31;4740495;30;20044;-67
2023/12/06 01:58:32;;;;;;;25.65;10.13;;;;;;;-9.10;59.04;101115.34;4700703;30;20044;-71
2023/12/06 02:00:59;;;;;;;27.45;11.18;;;;;;;-8.97;59.10;101130.81;4747945;30;20044;-67
2023/12/06 02:03:25;;;;;;;31.00;12.07;;;;;;;-9.01;59.36;101128.75;4714273;30;20753;-66
2023/12/06 02:05:52;;;;;;;27.35;10.80;;;;;;;-9.08;59.38;101117.22;4732964;30;20392;-66
2023/12/06 02:08:19;;;;;;;31.88;11.95;;;;;;;-9.08;58.77;101139.94;4748880;30;20535;-67
2023/12/06 02:10:45;;;;;;;27.70;10.93;;;;;;;-9.44;59.14;101070.28;4747441;30;20149;-66
2023/12/06 02:13:11;;;;;;;28.77;11.65;;;;;;;-9.08;59.09;101134.91;4732297;30;20077;-67
2023/12/06 02:15:37;;;;;;;29.52;11.15;;;;;;;-8.99;59.48;101149.09;4732762;30;20177;-66
2023/12/06 02:18:04;;;;;;;26.15;11.25;;;;;;;-9.06;59.17;101140.09;4748011;30;20575;-66
2023/12/06 02:20:31;;;;;;;24.05;11.10;;;;;;;-9.19;58.85;101128.00;4747445;30;20044;-66
2023/12/06 02:22:58;;;;;;;30.08;10.73;;;;;;;-9.24;59.83;101114.06;4748089;30;20390;-67
2023/12/06 02:25:24;;;;;;;27.55;10.20;;;;;;;-9.00;59.41;101148.19;4747939;30;20059;-68
2023/12/06 02:27:50;;;;;;;26.50;9.95;;;;;;;-8.95;59.61;101141.06;4724899;30;20488;-67
2023/12/06 02:30:16;;;;;;;26.60;10.88;;;;;;;-8.88;59.98;101115.63;4733667;30;20092;-67
2023/12/06 02:32:42;;;;;;;23.02;9.98;;;;;;;-8.59;59.99;101140.06;4732620;30;20445;-67
2023/12/06 02:35:16;;;;;;;28.83;11.05;;;;;;;-8.60;59.56;101127.31;4747575;30;20051;-68
2023/12/06 02:37:44;;;;;;;27.73;10.13;;;;;;;-8.81;59.55;101107.88;4733558;30;20040;-72
2023/12/06 02:40:12;;;;;;;23.10;9.70;;;;;;;-8.89;59.83;101090.25;4748338;30;20040;-66
2023/12/06 02:42:38;;;;;;;22.48;10.00;;;;;;;-8.60;59.85;101138.28;4746767;30;20043;-67
2023/12/06 02:45:04;;;;;;;29.38;10.88;;;;;;;-8.48;60.16;101154.50;4733654;30;20134;-68
2023/12/06 02:47:30;;;;;;;28.10;10.35;;;;;;;-8.35;60.52;101145.50;4732637;30;20110;-66
2023/12/06 02:49:57;;;;;;;27.48;10.45;;;;;;;-8.48;59.78;101123.34;4739949;30;20494;-66
2023/12/06 02:52:23;;;;;;;30.13;10.50;;;;;;;-8.57;60.27;101114.94;4729446;30;20044;-67
2023/12/06 02:54:49;;;;;;;28.60;10.57;;;;;;;-8.26;60.18;101151.34;4738856;30;20055;-68
2023/12/06 02:57:15;;;;;;;32.92;13.32;;;;;;;-8.39;60.37;101125.78;4732163;30;20036;-67
2023/12/06 02:59:41;;;;;;;35.50;13.13;;;;;;;-8.27;60.35;101144.50;4717707;30;20173;-68
2023/12/06 03:02:07;;;;;;;38.08;12.93;;;;;;;-8.54;60.32;101093.41;4730600;30;20067;-68
2023/12/06 03:04:33;;;;;;;34.17;14.70;;;;;;;-8.07;60.83;101155.50;4761242;30;20386;-67
2023/12/06 03:06:59;;;;;;;37.40;14.00;;;;;;;-8.12;60.25;101134.00;4746323;30;20059;-67
2023/12/06 03:09:25;;;;;;;33.88;13.70;;;;;;;-8.00;60.40;101152.75;4731689;30;20206;-68
2023/12/06 03:11:53;;;;;;;32.53;12.88;;;;;;;-7.93;60.44;101150.00;4724826;30;20040;-68
2023/12/06 03:14:19;;;;;;;32.83;12.45;;;;;;;-7.92;60.96;101123.09;4723862;30;20048;-68
2023/12/06 03:16:45;;;;;;;33.10;12.40;;;;;;;-7.49;61.28;101171.41;4732130;30;20044;-68
2023/12/06 03:19:11;;;;;;;33.17;12.98;;;;;;;-7.42;60.83;101164.47;4728722;30;20043;-68
2023/12/06 03:21:37;;;;;;;29.88;13.05;;;;;;;-7.23;61.16;101167.69;4760866;30;20499;-68
2023/12/06 03:24:03;;;;;;;28.63;12.30;;;;;;;-7.33;60.71;101126.41;4738681;30;20118;-68
2023/12/06 03:26:29;;;;;;;31.48;12.13;;;;;;;-7.01;60.42;101170.34;4745883;30;20048;-67
2023/12/06 03:28:56;;;;;;;33.47;11.88;;;;;;;-6.90;60.39;101182.28;4731264;30;20043;-70
2023/12/06 03:31:22;;;;;;;34.65;12.30;;;;;;;-6.97;60.25;101160.63;4745441;30;20142;-68
2023/12/06 03:33:47;;;;;;;37.03;11.90;;;;;;;-6.87;60.12;101169.88;4715197;30;20082;-69
2023/12/06 03:36:13;;;;;;;26.67;11.15;;;;;;;-6.84;60.37;101182.75;4746488;30;20126;-70
2023/12/06 03:38:40;;;;;;;27.05;11.38;;;;;;;-6.98;60.16;101168.09;4715782;30;20121;-69
2023/12/06 03:41:06;;;;;;;25.77;11.35;;;;;;;-6.98;59.68;101183.28;4731042;30;21881;-68
2023/12/06 03:43:32;;;;;;;27.65;12.50;;;;;;;-6.99;59.86;101187.47;4745009;30;20203;-69
2023/12/06 03:45:58;;;;;;;27.85;11.43;;;;;;;-6.94;59.58;101190.38;4745550;30;20131;-66
2023/12/06 03:48:24;;;;;;;21.67;9.88;;;;;;;-7.22;59.83;101147.56;4745362;30;20036;-67
2023/12/06 03:50:50;;;;;;;24.73;11.00;;;;;;;-6.87;59.58;101217.06;4745408;30;20411;-67
2023/12/06 03:53:16;;;;;;;25.15;10.43;;;;;;;-6.91;59.58;101208.34;4722338;30;20040;-67
2023/12/06 03:55:43;;;;;;;25.23;10.70;;;;;;;-7.00;59.54;101182.25;4728156;30;20416;-68
2023/12/06 03:58:09;;;;;;;25.95;11.23;;;;;;;-7.14;59.40;101149.09;4723119;30;20139;-78
2023/12/06 04:00:35;;;;;;;28.48;12.02;;;;;;;-6.97;59.42;101173.28;4728490;30;20048;-70
2023/12/06 04:03:01;;;;;;;29.05;11.10;;;;;;;-6.90;59.35;101201.63;4746230;30;20070;-72
2023/12/06 04:05:27;;;;;;;28.80;11.95;;;;;;;-6.94;58.53;101210.63;4746862;30;20051;-72
2023/12/06 04:07:53;;;;;;;31.60;12.50;;;;;;;-6.84;58.80;101227.47;4730615;30;20063;-69
2023/12/06 04:10:19;;;;;;;31.20;12.82;;;;;;;-6.76;58.59;101240.75;4738314;30;20048;-67
2023/12/06 04:12:45;;;;;;;26.98;11.20;;;;;;;-6.94;58.77;101194.53;4728504;30;20143;-66
2023/12/06 04:15:11;;;;;;;26.95;9.98;;;;;;;-7.02;58.29;101197.31;4729053;30;20062;-68
2023/12/06 04:17:37;;;;;;;20.83;9.95;;;;;;;-7.06;58.38;101213.00;4746360;30;20179;-70
2023/12/06 04:20:05;;;;;;;26.00;10.65;;;;;;;-7.11;58.38;101192.38;4738406;30;20042;-68
2023/12/06 04:22:31;;;;;;;24.23;10.45;;;;;;;-6.97;58.55;101201.13;4722394;30;20489;-70
2023/12/06 04:24:57;;;;;;;22.77;10.30;;;;;;;-6.84;58.69;101217.34;4730840;30;20565;-71
2023/12/06 04:27:23;;;;;;;23.75;9.93;;;;;;;-6.63;58.53;101241.06;4746786;30;20051;-69
2023/12/06 04:29:49;;;;;;;26.42;11.38;;;;;;;-6.69;58.52;101225.34;4745620;30;20420;-73
2023/12/06 04:32:15;;;;;;;31.58;12.48;;;;;;;-6.52;58.19;101237.75;4712779;30;20051;-71
2023/12/06 04:34:53;;;;;;;25.88;11.27;;;;;;;-6.47;58.27;101245.72;4725091;30;20048;-70
2023/12/06 04:37:19;;;;;;;25.38;10.60;;;;;;;-6.49;58.01;101257.38;4744527;30;20048;-68
2023/12/06 04:39:48;;;;;;;27.52;11.27;;;;;;;-6.58;57.88;101242.28;4732427;30;20055;-70
2023/12/06 04:42:15;;;;;;;24.65;10.60;;;;;;;-6.53;57.61;101260.44;4730507;30;20098;-71
2023/12/06 04:44:41;;;;;;;23.85;10.95;;;;;;;-6.70;57.65;101233.69;4729499;30;20575;-70
2023/12/06 04:47:07;;;;;;;27.17;11.10;;;;;;;-6.71;57.17;101264.84;4715178;30;20253;-70
2023/12/06 04:49:33;;;;;;;30.73;11.32;;;;;;;-6.67;57.03;101277.00;4746870;30;20138;-71
2023/12/06 04:52:00;;;;;;;24.33;10.32;;;;;;;-6.70;57.62;101280.16;4715855;30;20091;-70
2023/12/06 04:54:27;;;;;;;21.55;9.98;;;;;;;-6.77;57.34;101254.19;4715385;30;20295;-70
2023/12/06 04:56:53;;;;;;;25.67;10.30;;;;;;;-6.67;57.48;101277.88;4737838;30;20052;-71
2023/12/06 04:59:19;;;;;;;25.75;10.63;;;;;;;-6.62;57.29;101264.72;4731220;30;20051;-71
2023/12/06 05:01:45;;;;;;;22.63;9.48;;;;;;;-6.68;56.86;101260.91;4746971;30;20052;-68
2023/12/06 05:04:11;;;;;;;23.90;10.60;;;;;;;-6.59;57.41;101264.97;4721851;30;20296;-71
2023/12/06 05:06:37;;;;;;;24.75;10.15;;;;;;;-6.47;57.21;101285.38;4745341;30;20044;-71
2023/12/06 05:09:10;;;;;;;27.80;10.60;;;;;;;-6.63;57.12;101263.84;4726395;30;20047;-71
2023/12/06 05:11:36;;;;;;;26.00;11.85;;;;;;;-6.42;57.35;101289.19;4730334;30;20566;-70
2023/12/06 05:14:02;;;;;;;27.42;10.75;;;;;;;-6.41;57.17;101286.78;4736038;30;20047;-69
2023/12/06 05:16:28;;;;;;;29.83;11.77;;;;;;;-6.78;57.15;101230.53;4746570;30;20052;-68
2023/12/06 05:18:54;;;;;;;28.48;11.45;;;;;;;-6.44;57.01;101293.25;4746259;30;20376;-71
2023/12/06 05:21:20;;;;;;;27.23;10.68;;;;;;;-6.42;56.63;101295.13;4746687;30;20118;-70
2023/12/06 05:23:46;;;;;;;24.88;10.48;;;;;;;-6.57;56.72;101277.00;4718577;30;20745;-70
2023/12/06 05:26:12;;;;;;;31.00;11.10;;;;;;;-6.67;56.51;101277.00;4747625;30;20051;-70
2023/12/06 05:28:38;;;;;;;27.67;10.82;;;;;;;-6.59;56.84;101310.56;4749240;30;20056;-73
2023/12/06 05:31:03;;;;;;;21.83;9.85;;;;;;;-6.72;56.33;101298.50;4732873;30;20072;-69
2023/12/06 05:33:29;;;;;;;23.95;10.60;;;;;;;-6.59;56.56;101319.03;4733966;30;20074;-70
2023/12/06 05:35:55;;;;;;;21.88;9.32;;;;;;;-6.59;56.64;101293.72;4747626;30;20522;-71
2023/12/06 05:38:22;;;;;;;28.98;10.02;;;;;;;-6.67;56.59;101259.28;4719009;30;20533;-70
2023/12/06 05:40:48;;;;;;;24.17;10.20;;;;;;;-6.36;56.59;101305.78;4732730;30;20051;-70
2023/12/06 05:43:14;;;;;;;23.65;10.52;;;;;;;-6.36;56.85;101294.75;4719279;30;20044;-69
2023/12/06 05:45:40;;;;;;;26.27;11.20;;;;;;;-6.36;56.65;101287.13;4732593;30;20074;-70
2023/12/06 05:48:06;;;;;;;24.05;10.55;;;;;;;-6.19;56.81;101297.81;4750132;30;20056;-70
2023/12/06 05:50:32;;;;;;;24.88;10.68;;;;;;;-6.16;56.34;101290.44;4728003;30;20060;-68
2023/12/06 05:52:58;;;;;;;27.80;10.98;;;;;;;-6.07;56.59;101306.41;4716839;30;20053;-70
2023/12/06 05:55:24;;;;;;;24.85;10.55;;;;;;;-6.10;56.15;101312.13;4731829;30;20457;-69
2023/12/06 05:57:50;;;;;;;26.63;11.32;;;;;;;-6.14;56.21;101314.25;4730288;30;20048;-69
2023/12/06 06:00:17;;;;;;;37.30;12.40;;;;;;;-6.17;56.51;101319.97;4715227;30;20505;-70
2023/12/06 06:02:43;;;;;;;25.15;10.85;;;;;;;-6.28;55.95;101308.03;4715633;30;20041;-71
2023/12/06 06:05:10;;;;;;;25.23;10.85;;;;;;;-6.26;56.30;101317.56;4715025;30;20136;-71
2023/12/06 06:07:37;;;;;;;29.15;12.63;;;;;;;-6.41;56.48;101309.56;4730086;30;20060;-71
2023/12/06 06:10:04;;;;;;;27.13;10.95;;;;;;;-6.49;56.24;101291.97;4730597;30;20472;-69
2023/12/06 06:12:30;;;;;;;33.00;11.52;;;;;;;-6.15;56.41;101332.75;4707766;30;20120;-69
2023/12/06 06:14:56;;;;;;;31.15;11.93;;;;;;;-6.29;55.78;101316.44;4709505;30;20072;-71
2023/12/06 06:17:23;;;;;;;26.60;11.05;;;;;;;-6.09;56.52;101336.72;4730493;30;20088;-70
2023/12/06 06:19:49;;;;;;;29.90;11.93;;;;;;;-6.01;56.74;101339.88;4715149;30;20125;-69
2023/12/06 06:22:14;;;;;;;28.08;11.65;;;;;;;-5.99;56.22;101342.50;4715570;30;20056;-69
2023/12/06 06:24:40;;;;;;;26.73;11.63;;;;;;;-5.97;56.07;101340.97;4731125;30;20062;-70
2023/12/06 06:27:07;;;;;;;29.65;12.13;;;;;;;-6.08;56.14;101325.81;4730473;30;20056;-70
2023/12/06 06:29:32;;;;;;;29.58;12.00;;;;;;;-5.95;56.25;101345.41;4731738;30;20111;-70
2023/12/06 06:31:58;;;;;;;29.17;12.30;;;;;;;-6.05;56.11;101333.66;4731771;30;20044;-70
2023/12/06 06:34:24;;;;;;;31.95;13.27;;;;;;;-6.09;56.12;101329.09;4713984;30;20139;-69
2023/12/06 06:36:51;;;;;;;30.98;11.55;;;;;;;-6.00;55.89;101350.91;4722072;30;20620;-70
2023/12/06 06:39:17;;;;;;;28.17;12.30;;;;;;;-6.01;56.31;101336.44;4730771;30;20048;-69
2023/12/06 06:41:43;;;;;;;28.30;12.02;;;;;;;-6.09;56.95;101323.13;4709637;30;20044;-70
2023/12/06 06:44:08;;;;;;;31.30;13.13;;;;;;;-5.63;56.69;101329.41;4731660;30;20144;-70
2023/12/06 06:46:34;;;;;;;33.67;12.48;;;;;;;-5.31;56.49;101323.50;4729922;30;20052;-70
2023/12/06 06:49:00;;;;;;;29.70;13.07;;;;;;;-5.00;56.26;101343.66;4715958;30;20397;-70
2023/12/06 06:51:35;;;;;;;27.95;12.45;;;;;;;-3.80;56.50;101345.03;4742258;30;20063;-69
2023/12/06 06:54:06;;;;;;;28.48;11.93;;;;;;;-2.32;56.69;101329.09;4747683;30;20052;-70
2023/12/06 06:56:33;;;;;;;26.38;13.55;;;;;;;-1.04;54.98;101317.75;4732876;30;20048;-70
2023/12/06 06:59:02;;;;;;;25.10;12.30;;;;;;;-0.35;53.38;101271.59;4732785;30;20051;-71
2023/12/06 07:01:28;;;;;;;27.15;12.80;;;;;;;0.67;52.33;101317.47;4747426;30;20618;-71
2023/12/06 07:03:54;;;;;;;28.25;13.13;;;;;;;1.21;52.08;101299.88;4747147;30;20036;-71
2023/12/06 07:06:20;;;;;;;23.33;12.02;;;;;;;1.91;51.11;101318.84;4716906;30;20113;-70
2023/12/06 07:08:47;;;;;;;24.52;11.68;;;;;;;2.38;50.99;101329.75;4748761;30;20540;-70
2023/12/06 07:11:13;;;;;;;27.60;14.90;;;;;;;2.65;50.46;101309.63;4703373;30;20047;-71
2023/12/06 07:13:39;;;;;;;24.25;13.50;;;;;;;3.35;50.62;101327.38;4737702;30;20483;-70
2023/12/06 07:16:05;;;;;;;23.77;12.90;;;;;;;4.08;50.92;101303.06;4728615;30;20048;-69
2023/12/06 07:18:34;;;;;;;22.85;12.07;;;;;;;5.08;50.64;101324.19;4717627;30;20056;-70
2023/12/06 07:21:00;;;;;;;23.08;12.85;;;;;;;6.32;52.69;101318.22;4746721;30;20062;-70
2023/12/06 07:23:26;;;;;;;21.98;12.32;;;;;;;7.27;51.34;101295.25;4749199;30;20055;-68
2023/12/06 07:25:53;;;;;;;21.02;11.68;;;;;;;8.14;49.35;101308.78;4723974;30;20477;-71
2023/12/06 07:28:19;;;;;;;24.95;13.07;;;;;;;8.97;47.68;101306.38;4746337;30;20044;-71
2023/12/06 07:30:45;;;;;;;24.33;13.43;;;;;;;9.53;45.06;101299.75;4747382;30;20044;-68
2023/12/06 07:33:11;;;;;;;25.80;13.15;;;;;;;9.95;44.77;101300.50;4717618;30;20087;-70
2023/12/06 07:35:37;;;;;;;22.92;12.82;;;;;;;10.63;44.16;101301.63;4746182;30;20051;-70
2023/12/06 07:38:08;;;;;;;22.77;13.50;;;;;;;11.07;42.53;101310.03;4745612;30;20039;-71
2023/12/06 07:40:33;;;;;;;23.40;14.27;;;;;;;11.40;41.81;101304.38;4746197;30;20044;-70
2023/12/06 07:43:00;;;;;;;19.88;12.63;;;;;;;11.12;40.18;101300.56;4732865;30;20171;-69
2023/12/06 07:45:26;;;;;;;21.65;13.63;;;;;;;11.12;40.46;101305.78;4728165;30;20106;-70
2023/12/06 07:47:52;;;;;;;23.08;13.40;;;;;;;11.50;39.51;101305.34;4748441;30;20135;-72
2023/12/06 07:50:22;;;;;;;20.60;12.60;;;;;;;11.71;38.81;101304.72;4731100;30;20060;-71
2023/12/06 07:52:50;;;;;;;22.38;13.27;;;;;;;11.67;38.07;101291.66;4726280;30;20048;-70
2023/12/06 07:55:16;;;;;;;20.92;12.70;;;;;;;12.14;37.70;101321.69;4731572;30;20048;-70
2023/12/06 07:57:43;;;;;;;22.08;13.18;;;;;;;12.28;37.22;101299.16;4712998;30;20428;-70
2023/12/06 08:00:13;;;;;;;24.00;14.60;;;;;;;12.61;36.57;101302.91;4745676;30;20095;-70
2023/12/06 08:02:42;;;;;;;22.05;13.85;;;;;;;12.34;35.83;101293.16;4747891;30;20043;-70
2023/12/06 08:05:11;;;;;;;25.70;14.35;;;;;;;12.09;35.44;101315.53;4727860;30;20151;-69
2023/12/06 08:07:38;;;;;;;25.88;15.05;;;;;;;12.38;35.67;101320.13;4746030;30;20048;-70
2023/12/06 08:10:09;;;;;;;26.15;16.25;;;;;;;12.60;34.78;101309.00;4731051;30;20048;-70
2023/12/06 08:12:35;;;;;;;28.00;16.47;;;;;;;13.28;34.86;101318.91;4732168;30;20139;-70
2023/12/06 08:15:04;;;;;;;34.72;22.23;;;;;;;13.68;34.17;101307.75;4746974;30;20072;-72
2023/12/06 08:17:30;;;;;;;30.98;22.10;;;;;;;13.68;33.77;101315.59;4746660;30;20492;-69
2023/12/06 08:19:57;;;;;;;35.15;24.08;;;;;;;13.84;33.25;101320.00;4761567;30;20066;-71
2023/12/06 08:22:22;;;;;;;32.90;20.67;;;;;;;13.89;32.46;101299.09;4731200;30;20461;-71
2023/12/06 08:24:56;;;;;;;30.20;19.35;;;;;;;13.85;32.27;101313.03;4731501;30;20110;-70
2023/12/06 08:27:30;;;;;;;28.58;17.55;;;;;;;13.59;31.64;101286.78;4730747;30;20137;-70
2023/12/06 08:29:57;;;;;;;28.20;17.77;;;;;;;13.62;31.27;101281.56;4747113;30;20133;-69
2023/12/06 08:32:24;;;;;;;28.75;18.13;;;;;;;14.01;30.94;101313.94;4747018;30;20051;-71
2023/12/06 08:34:50;;;;;;;30.67;18.60;;;;;;;14.22;30.86;101309.56;4747361;30;20148;-71
2023/12/06 08:37:16;;;;;;;32.47;19.85;;;;;;;14.39;30.19;101320.03;4730953;30;20200;-70
2023/12/06 08:39:43;;;;;;;30.17;19.50;;;;;;;14.45;29.88;101320.88;4730372;30;20492;-70
2023/12/06 08:42:09;;;;;;;28.05;17.98;;;;;;;14.84;30.24;101328.72;4745065;30;20056;-72
2023/12/06 08:44:35;;;;;;;26.27;17.75;;;;;;;15.06;29.78;101326.94;4745795;30;20050;-71
2023/12/06 08:47:02;;;;;;;27.55;18.00;;;;;;;15.16;29.50;101322.53;4745849;30;20052;-72
2023/12/06 08:49:28;;;;;;;27.63;18.77;;;;;;;15.00;28.99;101324.31;4745687;30;20044;-70
2023/12/06 08:51:55;;;;;;;25.80;17.30;;;;;;;14.95;29.10;101326.06;4746427;30;20099;-70
2023/12/06 08:54:21;;;;;;;24.25;16.75;;;;;;;15.14;28.88;101312.91;4745368;30;20106;-70
2023/12/06 08:56:47;;;;;;;27.20;17.77;;;;;;;15.06;28.39;101305.97;4731335;30;20051;-72
2023/12/06 08:59:13;;;;;;;24.38;17.25;;;;;;;15.14;28.61;101305.94;4730275;30;20039;-71
2023/12/06 09:01:39;;;;;;;22.65;16.58;;;;;;;15.13;28.16;101287.56;4745438;30;20553;-69
2023/12/06 09:04:05;;;;;;;26.42;16.35;;;;;;;14.99;27.92;101291.13;4715671;30;20036;-70
2023/12/06 09:06:31;;;;;;;24.98;16.27;;;;;;;15.19;28.19;101305.91;4744010;30;20055;-71
2023/12/06 09:08:57;;;;;;;23.98;15.63;;;;;;;15.16;27.86;101291.06;4729551;30;20109;-71
2023/12/06 09:11:23;;;;;;;24.40;16.27;;;;;;;15.23;27.76;101301.53;4723001;30;20400;-71
2023/12/06 09:13:49;;;;;;;23.30;16.65;;;;;;;15.18;27.32;101296.28;4744168;30;20185;-71
2023/12/06 09:16:15;;;;;;;25.52;16.83;;;;;;;15.31;27.56;101291.88;4730781;30;20432;-70
2023/12/06 09:18:41;;;;;;;24.58;16.70;;;;;;;15.02;27.26;101288.50;4726799;30;20043;-70
2023/12/06 09:21:07;;;;;;;26.10;17.08;;;;;;;14.65;27.15;101288.59;4730832;30;20044;-71
2023/12/06 09:23:33;;;;;;;26.27;17.83;;;;;;;14.65;27.24;101303.41;4714398;30;20046;-70
2023/12/06 09:25:59;;;;;;;25.92;17.20;;;;;;;14.68;26.93;101299.06;4714883;30;20056;-70
2023/12/06 09:28:26;;;;;;;25.35;17.80;;;;;;;14.67;27.33;101310.41;4730475;30;20108;-71
2023/12/06 09:30:52;;;;;;;27.27;17.08;;;;;;;14.60;26.90;101321.75;4730070;30;20384;-72
2023/12/06 09:33:19;;;;;;;26.58;18.48;;;;;;;14.11;26.98;101302.56;4729743;30;20069;-70
2023/12/06 09:35:45;;;;;;;26.15;18.23;;;;;;;14.10;26.90;101315.69;4744656;30;20071;-69
2023/12/06 09:38:12;;;;;;;27.95;18.38;;;;;;;13.68;26.77;101313.84;4745396;30;20165;-70
2023/12/06 09:40:38;;;;;;;29.27;19.63;;;;;;;12.45;26.72;101319.34;4744556;30;20091;-70
2023/12/06 09:43:04;;;;;;;30.30;19.98;;;;;;;10.60;27.46;101329.34;4725421;30;20048;-70
2023/12/06 09:45:31;;;;;;;32.63;19.83;;;;;;;8.87;27.92;101340.78;4708059;30;20048;-71
2023/12/06 09:47:57;;;;;;;36.17;19.55;;;;;;;7.27;28.81;101352.19;4711765;30;20606;-68
2023/12/06 09:50:26;;;;;;;33.75;20.38;;;;;;;6.10;29.98;101346.75;4726585;30;20063;-70
2023/12/06 09:52:53;;;;;;;36.35;20.85;;;;;;;5.41;30.09;101356.38;4689323;30;20060;-70
2023/12/06 09:55:23;;;;;;;36.55;19.38;;;;;;;4.71;31.82;101357.97;4729221;30;20071;-70
2023/12/06 09:57:53;;;;;;;36.30;20.75;;;;;;;4.12;31.88;101346.16;4726927;30;20059;-70
2023/12/06 10:00:19;;;;;;;34.00;19.20;;;;;;;3.71;32.12;101364.19;4712202;30;20544;-69
2023/12/06 10:02:57;;;;;;;34.42;19.00;;;;;;;2.89;32.99;101344.13;4719076;30;20154;-69
2023/12/06 10:05:23;;;;;;;33.58;18.70;;;;;;;2.17;33.34;101322.75;4728636;30;20519;-70
2023/12/06 10:07:50;;;;;;;35.92;19.48;;;;;;;1.68;33.85;101344.22;4711901;30;20056;-69
2023/12/06 10:10:20;;;;;;;42.75;22.65;;;;;;;1.43;34.45;101378.88;4712321;30;20053;-70
2023/12/06 10:12:55;;;;;;;44.33;21.40;;;;;;;0.94;35.17;101382.19;4731406;30;20140;-72
2023/12/06 10:15:22;;;;;;;35.90;20.02;;;;;;;0.56;35.79;101379.22;4699785;30;20059;-67
2023/12/06 10:17:49;;;;;;;31.35;17.17;;;;;;;0.24;35.85;101385.97;4730294;30;20044;-70
2023/12/06 10:20:16;;;;;;;35.80;18.58;;;;;;;-0.42;36.51;101359.88;4730923;30;20048;-69
2023/12/06 10:22:42;;;;;;;33.85;17.10;;;;;;;-0.66;36.50;101400.19;4728804;30;20075;-68
2023/12/06 10:25:08;;;;;;;37.15;18.35;;;;;;;-0.98;37.42;101405.00;4700637;30;20088;-70
2023/12/06 10:27:35;;;;;;;36.45;18.88;;;;;;;-1.15;37.33;101403.97;4715907;30;20128;-70
2023/12/06 10:30:07;;;;;;;37.40;17.95;;;;;;;-1.26;37.87;101405.81;4729660;30;20060;-67
2023/12/06 10:32:34;;;;;;;34.90;17.75;;;;;;;-1.48;37.93;101400.97;4714846;30;20143;-68
2023/12/06 10:35:05;;;;;;;37.30;19.13;;;;;;;-1.68;38.25;101392.88;4731258;30;20139;-69
2023/12/06 10:37:32;;;;;;;33.58;16.95;;;;;;;-1.69;39.00;101415.78;4730576;30;20041;-69
2023/12/06 10:40:01;;;;;;;34.30;17.27;;;;;;;-1.80;39.21;101409.94;4731606;30;20468;-70
2023/12/06 10:42:34;;;;;;;35.75;17.98;;;;;;;-1.91;38.93;101415.97;4689066;30;20619;-69
2023/12/06 10:45:01;;;;;;;35.45;17.20;;;;;;;-2.33;39.70;101390.22;4731386;30;20056;-70
2023/12/06 10:47:29;;;;;;;36.60;18.33;;;;;;;-2.55;39.88;101404.03;4702486;30;20056;-69
2023/12/06 10:49:56;;;;;;;36.65;18.02;;;;;;;-2.84;39.61;101405.41;4701907;30;20060;-70
2023/12/06 10:52:23;;;;;;;45.30;17.48;;;;;;;-2.91;40.10;101424.47;4746914;30;20135;-70
2023/12/06 10:54:50;;;;;;;36.13;17.63;;;;;;;-3.09;40.55;101431.66;4717557;30;20105;-69
2023/12/06 10:57:18;;;;;;;40.63;17.42;;;;;;;-3.46;40.34;101408.63;4747248;30;20512;-68
2023/12/06 10:59:45;;;;;;;35.30;17.00;;;;;;;-3.72;40.40;101447.38;4714149;30;20051;-69
2023/12/06 11:02:12;;;;;;;35.90;16.98;;;;;;;-4.31;41.61;101438.75;4731913;30;20114;-69
2023/12/06 11:04:52;;;;;;;31.23;15.82;;;;;;;-4.49;41.96;101411.88;4732737;30;20048;-69
2023/12/06 11:07:48;;;;;;;35.10;16.98;;;;;;;-4.31;41.73;101445.47;4749083;30;20048;-69
2023/12/06 11:10:32;;;;;;;35.33;16.67;;;;;;;-4.48;43.27;101449.25;4732117;30;20052;-68